sensor_id;sensor_type;location;lat;lon;timestamp;pressure;altitude;pressure_sealevel;temperature;humidity
17230;BME280;8731;50.364;8.958;2024-02-23T00:02:11;97638.66;;;9.44;85.08
17230;BME280;8731;50.364;8.958;2024-02-23T00:06:35;97632.47;;;9.39;83.93
17230;BME280;8731;50.364;8.958;2024-02-23T00:10:58;97642.56;;;9.23;83.53
17230;BME280;8731;50.364;8.958;2024-02-23T00:15:20;97673.13;;;9.25;83.23
17230;BME280;8731;50.364;8.958;2024-02-23T00:19:45;97666.47;;;9.27;82.29
17230;BME280;8731;50.364;8.958;2024-02-23T00:24:12;97688.59;;;9.14;81.24
17230;BME280;8731;50.364;8.958;2024-02-23T00:28:36;97699.44;;;9.12;80.68
17230;BME280;8731;50.364;8.958;2024-02-23T00:32:59;97709.94;;;9.18;81.04
17230;BME280;8731;50.364;8.958;2024-02-23T00:37:21;97722.28;;;9.12;81.51
17230;BME280;8731;50.364;8.958;2024-02-23T00:41:45;97745.75;;;9.08;81.88
17230;BME280;8731;50.364;8.958;2024-02-23T00:46:08;97748.81;;;9.02;82.02
17230;BME280;8731;50.364;8.958;2024-02-23T00:50:31;97756.94;;;9.11;81.96
17230;BME280;8731;50.364;8.958;2024-02-23T00:54:53;97773.09;;;8.99;82.18
17230;BME280;8731;50.364;8.958;2024-02-23T00:59:17;97785.06;;;8.86;81.23
17230;BME280;8731;50.364;8.958;2024-02-23T01:03:39;97793.47;;;8.85;80.34
17230;BME280;8731;50.364;8.958;2024-02-23T01:08:02;97797.22;;;8.77;80.32
17230;BME280;8731;50.364;8.958;2024-02-23T01:12:24;97819.28;;;8.65;81.41
17230;BME280;8731;50.364;8.958;2024-02-23T01:16:48;97827.56;;;8.76;82.66
17230;BME280;8731;50.364;8.958;2024-02-23T01:21:10;97836.44;;;8.69;83.90
17230;BME280;8731;50.364;8.958;2024-02-23T01:25:33;97857.41;;;8.67;83.38
17230;BME280;8731;50.364;8.958;2024-02-23T01:29:55;97835.00;;;8.59;83.70
17230;BME280;8731;50.364;8.958;2024-02-23T01:34:20;97873.03;;;8.46;84.42
17230;BME280;8731;50.364;8.958;2024-02-23T01:38:42;97876.16;;;8.29;84.20
17230;BME280;8731;50.364;8.958;2024-02-23T01:43:05;97876.59;;;8.23;85.47
17230;BME280;8731;50.364;8.958;2024-02-23T01:47:28;97870.38;;;8.18;86.59
17230;BME280;8731;50.364;8.958;2024-02-23T01:51:55;97876.97;;;7.90;87.19
17230;BME280;8731;50.364;8.958;2024-02-23T01:56:17;97884.78;;;7.93;84.46
17230;BME280;8731;50.364;8.958;2024-02-23T02:00:40;97893.84;;;7.89;84.49
17230;BME280;8731;50.364;8.958;2024-02-23T02:05:04;97895.09;;;7.83;83.36
17230;BME280;8731;50.364;8.958;2024-02-23T02:09:29;97912.66;;;7.68;82.21
17230;BME280;8731;50.364;8.958;2024-02-23T02:13:52;97919.22;;;7.53;80.38
17230;BME280;8731;50.364;8.958;2024-02-23T02:18:14;97921.66;;;7.51;79.91
17230;BME280;8731;50.364;8.958;2024-02-23T02:22:39;97945.19;;;7.62;80.36
17230;BME280;8731;50.364;8.958;2024-02-23T02:27:03;97949.72;;;7.54;79.62
17230;BME280;8731;50.364;8.958;2024-02-23T02:31:26;97948.41;;;7.48;78.91
17230;BME280;8731;50.364;8.958;2024-02-23T02:35:49;97953.44;;;7.34;78.43
17230;BME280;8731;50.364;8.958;2024-02-23T02:40:11;97953.13;;;7.18;78.29
17230;BME280;8731;50.364;8.958;2024-02-23T02:44:35;97961.03;;;7.23;78.35
17230;BME280;8731;50.364;8.958;2024-02-23T02:48:57;97963.16;;;7.05;78.25
17230;BME280;8731;50.364;8.958;2024-02-23T02:53:20;97961.63;;;7.07;78.71
17230;BME280;8731;50.364;8.958;2024-02-23T02:57:44;97977.25;;;7.01;78.47
17230;BME280;8731;50.364;8.958;2024-02-23T03:02:08;97982.31;;;7.01;78.50
17230;BME280;8731;50.364;8.958;2024-02-23T03:06:30;97982.97;;;6.99;78.90
17230;BME280;8731;50.364;8.958;2024-02-23T03:10:52;97983.84;;;6.99;79.60
17230;BME280;8731;50.364;8.958;2024-02-23T03:15:15;97994.22;;;6.91;79.79
17230;BME280;8731;50.364;8.958;2024-02-23T03:19:39;98007.63;;;6.78;79.34
17230;BME280;8731;50.364;8.958;2024-02-23T03:24:01;98005.66;;;6.74;79.25
17230;BME280;8731;50.364;8.958;2024-02-23T03:28:24;98012.78;;;6.80;78.60
17230;BME280;8731;50.364;8.958;2024-02-23T03:32:47;98028.28;;;6.72;77.83
17230;BME280;8731;50.364;8.958;2024-02-23T03:37:13;98022.78;;;6.78;78.24
17230;BME280;8731;50.364;8.958;2024-02-23T03:41:35;98024.56;;;6.79;78.62
17230;BME280;8731;50.364;8.958;2024-02-23T03:45:58;98013.56;;;6.67;78.22
17230;BME280;8731;50.364;8.958;2024-02-23T03:50:21;98035.22;;;6.63;78.79
17230;BME280;8731;50.364;8.958;2024-02-23T03:54:44;98028.38;;;6.62;78.72
17230;BME280;8731;50.364;8.958;2024-02-23T03:59:07;98032.44;;;6.60;79.28
17230;BME280;8731;50.364;8.958;2024-02-23T04:03:30;98031.56;;;6.60;79.63
17230;BME280;8731;50.364;8.958;2024-02-23T04:07:52;98036.06;;;6.52;80.63
17230;BME280;8731;50.364;8.958;2024-02-23T04:12:16;98046.91;;;6.28;80.82
17230;BME280;8731;50.364;8.958;2024-02-23T04:16:39;98033.50;;;6.29;81.14
17230;BME280;8731;50.364;8.958;2024-02-23T04:21:01;98037.78;;;6.18;81.70
17230;BME280;8731;50.364;8.958;2024-02-23T04:25:24;98050.84;;;6.24;81.66
17230;BME280;8731;50.364;8.958;2024-02-23T04:29:48;98052.81;;;6.17;81.90
17230;BME280;8731;50.364;8.958;2024-02-23T04:34:12;98063.69;;;6.15;81.82
17230;BME280;8731;50.364;8.958;2024-02-23T04:38:37;98063.97;;;6.08;82.34
17230;BME280;8731;50.364;8.958;2024-02-23T04:43:00;98072.09;;;6.04;82.67
17230;BME280;8731;50.364;8.958;2024-02-23T04:47:24;98078.25;;;6.08;83.78
17230;BME280;8731;50.364;8.958;2024-02-23T04:51:47;98083.75;;;6.14;84.41
17230;BME280;8731;50.364;8.958;2024-02-23T04:56:10;98085.88;;;6.20;85.35
17230;BME280;8731;50.364;8.958;2024-02-23T05:00:32;98092.22;;;6.14;86.05
17230;BME280;8731;50.364;8.958;2024-02-23T05:04:56;98092.75;;;6.10;86.97
17230;BME280;8731;50.364;8.958;2024-02-23T05:09:18;98088.63;;;6.23;86.52
17230;BME280;8731;50.364;8.958;2024-02-23T05:13:41;98096.53;;;6.15;87.01
17230;BME280;8731;50.364;8.958;2024-02-23T05:18:05;98087.22;;;6.26;86.54
17230;BME280;8731;50.364;8.958;2024-02-23T05:22:29;98091.19;;;6.34;86.70
17230;BME280;8731;50.364;8.958;2024-02-23T05:26:52;98103.25;;;6.27;86.56
17230;BME280;8731;50.364;8.958;2024-02-23T05:31:14;98108.00;;;6.34;87.30
17230;BME280;8731;50.364;8.958;2024-02-23T05:35:37;98099.63;;;6.23;86.54
17230;BME280;8731;50.364;8.958;2024-02-23T05:40:01;98099.19;;;6.29;86.01
17230;BME280;8731;50.364;8.958;2024-02-23T05:44:27;98091.56;;;6.39;85.99
17230;BME280;8731;50.364;8.958;2024-02-23T05:48:50;98095.13;;;6.31;85.62
17230;BME280;8731;50.364;8.958;2024-02-23T05:53:12;98088.66;;;6.34;86.37
17230;BME280;8731;50.364;8.958;2024-02-23T05:57:36;98096.47;;;6.37;86.16
17230;BME280;8731;50.364;8.958;2024-02-23T06:01:58;98091.84;;;6.32;85.66
17230;BME280;8731;50.364;8.958;2024-02-23T06:06:21;98100.31;;;6.32;86.44
17230;BME280;8731;50.364;8.958;2024-02-23T06:10:44;98106.78;;;6.29;86.07
17230;BME280;8731;50.364;8.958;2024-02-23T06:15:09;98096.13;;;6.33;85.96
17230;BME280;8731;50.364;8.958;2024-02-23T06:19:33;98105.91;;;6.28;86.25
17230;BME280;8731;50.364;8.958;2024-02-23T06:23:56;98112.16;;;6.22;86.16
17230;BME280;8731;50.364;8.958;2024-02-23T06:28:18;98111.25;;;6.21;86.29
17230;BME280;8731;50.364;8.958;2024-02-23T06:32:42;98127.06;;;6.19;86.07
17230;BME280;8731;50.364;8.958;2024-02-23T06:37:05;98146.44;;;6.08;86.61
17230;BME280;8731;50.364;8.958;2024-02-23T06:41:28;98154.78;;;6.07;86.79
17230;BME280;8731;50.364;8.958;2024-02-23T06:45:53;98158.78;;;6.15;87.04
17230;BME280;8731;50.364;8.958;2024-02-23T06:50:17;98163.66;;;6.02;87.53
17230;BME280;8731;50.364;8.958;2024-02-23T06:54:40;98166.00;;;6.10;87.51
17230;BME280;8731;50.364;8.958;2024-02-23T06:59:02;98173.34;;;6.07;87.68
17230;BME280;8731;50.364;8.958;2024-02-23T07:03:25;98169.94;;;6.07;88.08
17230;BME280;8731;50.364;8.958;2024-02-23T07:07:51;98171.41;;;6.15;87.88
17230;BME280;8731;50.364;8.958;2024-02-23T07:12:13;98178.47;;;6.19;88.26
17230;BME280;8731;50.364;8.958;2024-02-23T07:16:37;98186.28;;;6.22;88.04
17230;BME280;8731;50.364;8.958;2024-02-23T07:21:00;98193.34;;;6.26;87.33
17230;BME280;8731;50.364;8.958;2024-02-23T07:25:24;98192.81;;;6.30;87.64
17230;BME280;8731;50.364;8.958;2024-02-23T07:29:47;98201.13;;;6.39;87.84
17230;BME280;8731;50.364;8.958;2024-02-23T07:34:10;98192.16;;;6.33;87.66
17230;BME280;8731;50.364;8.958;2024-02-23T07:38:32;98187.53;;;6.27;87.88
17230;BME280;8731;50.364;8.958;2024-02-23T07:42:56;98189.34;;;6.40;86.36
17230;BME280;8731;50.364;8.958;2024-02-23T07:47:18;98194.41;;;6.40;84.52
17230;BME280;8731;50.364;8.958;2024-02-23T07:51:41;98190.59;;;6.45;84.48
17230;BME280;8731;50.364;8.958;2024-02-23T07:56:03;98197.78;;;6.62;84.77
17230;BME280;8731;50.364;8.958;2024-02-23T08:00:30;98202.47;;;6.58;84.39
17230;BME280;8731;50.364;8.958;2024-02-23T08:04:58;98214.78;;;6.53;83.44
17230;BME280;8731;50.364;8.958;2024-02-23T08:09:21;98217.25;;;6.63;82.89
17230;BME280;8731;50.364;8.958;2024-02-23T08:13:44;98221.00;;;6.68;82.37
17230;BME280;8731;50.364;8.958;2024-02-23T08:18:08;98231.03;;;6.78;81.20
17230;BME280;8731;50.364;8.958;2024-02-23T08:22:30;98232.28;;;7.17;81.15
17230;BME280;8731;50.364;8.958;2024-02-23T08:26:54;98239.16;;;7.65;78.50
17230;BME280;8731;50.364;8.958;2024-02-23T08:31:16;98216.81;;;8.43;76.15
17230;BME280;8731;50.364;8.958;2024-02-23T08:35:40;98216.22;;;8.83;74.07
17230;BME280;8731;50.364;8.958;2024-02-23T08:40:03;98213.81;;;8.73;73.87
17230;BME280;8731;50.364;8.958;2024-02-23T08:44:28;98211.88;;;8.69;74.13
17230;BME280;8731;50.364;8.958;2024-02-23T08:48:50;98215.25;;;8.81;72.80
17230;BME280;8731;50.364;8.958;2024-02-23T08:53:14;98223.31;;;9.01;73.06
17230;BME280;8731;50.364;8.958;2024-02-23T08:57:37;98221.22;;;8.95;72.08
17230;BME280;8731;50.364;8.958;2024-02-23T09:01:59;98219.06;;;8.88;69.96
17230;BME280;8731;50.364;8.958;2024-02-23T09:06:21;98230.41;;;8.68;68.68
17230;BME280;8731;50.364;8.958;2024-02-23T09:10:45;98237.31;;;8.82;70.39
17230;BME280;8731;50.364;8.958;2024-02-23T09:15:08;98224.91;;;8.87;71.06
17230;BME280;8731;50.364;8.958;2024-02-23T09:19:30;98228.03;;;8.58;70.04
17230;BME280;8731;50.364;8.958;2024-02-23T09:23:53;98240.16;;;8.50;70.41
17230;BME280;8731;50.364;8.958;2024-02-23T09:28:17;98235.69;;;8.23;70.39
17230;BME280;8731;50.364;8.958;2024-02-23T09:32:39;98216.53;;;8.15;70.68
17230;BME280;8731;50.364;8.958;2024-02-23T09:37:02;98217.06;;;8.34;71.45
17230;BME280;8731;50.364;8.958;2024-02-23T09:41:25;98222.59;;;8.17;71.83
17230;BME280;8731;50.364;8.958;2024-02-23T09:45:50;98222.81;;;7.96;71.78
17230;BME280;8731;50.364;8.958;2024-02-23T09:50:13;98215.75;;;8.16;72.78
17230;BME280;8731;50.364;8.958;2024-02-23T09:54:36;98218.50;;;8.19;72.83
17230;BME280;8731;50.364;8.958;2024-02-23T09:59:02;98221.66;;;8.28;74.64
17230;BME280;8731;50.364;8.958;2024-02-23T10:03:27;98233.84;;;8.09;75.57
17230;BME280;8731;50.364;8.958;2024-02-23T10:07:51;98245.53;;;8.07;76.13
17230;BME280;8731;50.364;8.958;2024-02-23T10:12:15;98235.72;;;8.11;77.10
17230;BME280;8731;50.364;8.958;2024-02-23T10:16:39;98239.31;;;8.26;76.88
17230;BME280;8731;50.364;8.958;2024-02-23T10:21:04;98222.94;;;8.58;75.67
17230;BME280;8731;50.364;8.958;2024-02-23T10:25:28;98221.34;;;8.72;74.08
17230;BME280;8731;50.364;8.958;2024-02-23T10:29:50;98223.09;;;8.73;73.91
17230;BME280;8731;50.364;8.958;2024-02-23T10:34:14;98216.63;;;8.89;73.69
17230;BME280;8731;50.364;8.958;2024-02-23T10:38:45;98215.53;;;8.86;72.14
17230;BME280;8731;50.364;8.958;2024-02-23T10:43:12;98213.06;;;8.99;72.71
17230;BME280;8731;50.364;8.958;2024-02-23T10:47:38;98209.09;;;8.78;71.44
17230;BME280;8731;50.364;8.958;2024-02-23T10:52:02;98204.34;;;8.96;70.60
17230;BME280;8731;50.364;8.958;2024-02-23T10:56:27;98212.88;;;9.09;71.83
17230;BME280;8731;50.364;8.958;2024-02-23T11:00:50;98211.16;;;8.83;70.19
17230;BME280;8731;50.364;8.958;2024-02-23T11:05:14;98205.59;;;8.89;70.01
17230;BME280;8731;50.364;8.958;2024-02-23T11:09:37;98196.00;;;9.10;70.10
17230;BME280;8731;50.364;8.958;2024-02-23T11:14:02;98189.25;;;9.10;70.27
17230;BME280;8731;50.364;8.958;2024-02-23T11:18:29;98191.97;;;9.00;68.62
17230;BME280;8731;50.364;8.958;2024-02-23T11:22:52;98195.81;;;9.20;69.10
17230;BME280;8731;50.364;8.958;2024-02-23T11:27:15;98190.63;;;10.11;67.52
17230;BME280;8731;50.364;8.958;2024-02-23T11:31:46;98189.31;;;9.76;66.77
17230;BME280;8731;50.364;8.958;2024-02-23T11:36:09;98189.97;;;10.27;66.79
17230;BME280;8731;50.364;8.958;2024-02-23T11:40:32;98193.13;;;10.51;66.92
17230;BME280;8731;50.364;8.958;2024-02-23T11:44:55;98190.56;;;10.51;66.39
17230;BME280;8731;50.364;8.958;2024-02-23T11:49:20;98181.28;;;10.23;66.04
17230;BME280;8731;50.364;8.958;2024-02-23T11:53:49;98183.38;;;10.17;66.12
17230;BME280;8731;50.364;8.958;2024-02-23T11:58:12;98186.34;;;10.10;66.99
17230;BME280;8731;50.364;8.958;2024-02-23T12:02:36;98194.06;;;10.11;67.13
17230;BME280;8731;50.364;8.958;2024-02-23T12:07:00;98189.34;;;10.31;67.36
17230;BME280;8731;50.364;8.958;2024-02-23T12:11:22;98195.22;;;10.30;67.27
17230;BME280;8731;50.364;8.958;2024-02-23T12:15:45;98184.38;;;10.32;67.50
17230;BME280;8731;50.364;8.958;2024-02-23T12:20:09;98181.22;;;10.64;66.48
17230;BME280;8731;50.364;8.958;2024-02-23T12:24:34;98182.47;;;10.71;66.21
17230;BME280;8731;50.364;8.958;2024-02-23T12:29:00;98191.28;;;10.63;66.87
17230;BME280;8731;50.364;8.958;2024-02-23T12:33:27;98186.97;;;10.75;67.25
17230;BME280;8731;50.364;8.958;2024-02-23T12:37:50;98192.78;;;10.59;68.09
17230;BME280;8731;50.364;8.958;2024-02-23T12:42:14;98188.56;;;10.60;68.50
17230;BME280;8731;50.364;8.958;2024-02-23T12:46:36;98190.19;;;11.15;69.09
17230;BME280;8731;50.364;8.958;2024-02-23T12:50:59;98188.94;;;11.23;67.21
17230;BME280;8731;50.364;8.958;2024-02-23T12:55:21;98185.41;;;11.06;67.47
17230;BME280;8731;50.364;8.958;2024-02-23T12:59:46;98187.91;;;11.20;68.50
17230;BME280;8731;50.364;8.958;2024-02-23T13:04:09;98175.56;;;11.72;67.73
17230;BME280;8731;50.364;8.958;2024-02-23T13:08:33;98162.88;;;11.73;66.23
17230;BME280;8731;50.364;8.958;2024-02-23T13:12:56;98165.09;;;11.82;64.08
17230;BME280;8731;50.364;8.958;2024-02-23T13:17:19;98169.09;;;11.62;65.37
17230;BME280;8731;50.364;8.958;2024-02-23T13:21:42;98166.69;;;12.11;64.06
17230;BME280;8731;50.364;8.958;2024-02-23T13:26:04;98157.56;;;11.99;63.47
17230;BME280;8731;50.364;8.958;2024-02-23T13:30:27;98152.03;;;12.07;64.28
17230;BME280;8731;50.364;8.958;2024-02-23T13:34:51;98162.00;;;11.73;63.95
17230;BME280;8731;50.364;8.958;2024-02-23T13:39:14;98158.72;;;11.44;64.35
17230;BME280;8731;50.364;8.958;2024-02-23T13:43:36;98152.53;;;11.55;65.26
17230;BME280;8731;50.364;8.958;2024-02-23T13:48:00;98157.31;;;11.49;65.18
17230;BME280;8731;50.364;8.958;2024-02-23T13:52:25;98166.47;;;11.16;65.29
17230;BME280;8731;50.364;8.958;2024-02-23T13:56:48;98195.59;;;11.06;68.13
17230;BME280;8731;50.364;8.958;2024-02-23T14:01:11;98193.66;;;10.60;71.40
17230;BME280;8731;50.364;8.958;2024-02-23T14:05:35;98185.84;;;10.57;73.55
17230;BME280;8731;50.364;8.958;2024-02-23T14:09:58;98186.44;;;10.25;72.80
17230;BME280;8731;50.364;8.958;2024-02-23T14:14:22;98187.81;;;10.20;72.58
17230;BME280;8731;50.364;8.958;2024-02-23T14:18:45;98191.47;;;9.97;72.58
17230;BME280;8731;50.364;8.958;2024-02-23T14:23:08;98186.97;;;9.79;73.52
17230;BME280;8731;50.364;8.958;2024-02-23T14:27:31;98190.88;;;10.01;72.80
17230;BME280;8731;50.364;8.958;2024-02-23T14:31:54;98187.34;;;9.85;73.06
17230;BME280;8731;50.364;8.958;2024-02-23T14:36:19;98192.63;;;9.89;73.32
17230;BME280;8731;50.364;8.958;2024-02-23T14:40:42;98175.44;;;9.71;72.06
17230;BME280;8731;50.364;8.958;2024-02-23T14:45:07;98170.47;;;9.60;72.04
17230;BME280;8731;50.364;8.958;2024-02-23T14:49:33;98161.09;;;9.72;72.31
17230;BME280;8731;50.364;8.958;2024-02-23T14:53:57;98159.19;;;9.82;72.62
17230;BME280;8731;50.364;8.958;2024-02-23T14:58:20;98151.94;;;9.89;72.73
17230;BME280;8731;50.364;8.958;2024-02-23T15:02:43;98149.41;;;10.02;73.25
17230;BME280;8731;50.364;8.958;2024-02-23T15:07:06;98144.13;;;9.99;73.96
17230;BME280;8731;50.364;8.958;2024-02-23T15:11:28;98144.31;;;10.02;74.62
17230;BME280;8731;50.364;8.958;2024-02-23T15:15:51;98135.53;;;9.97;74.65
17230;BME280;8731;50.364;8.958;2024-02-23T15:20:16;98123.13;;;9.88;73.92
17230;BME280;8731;50.364;8.958;2024-02-23T15:24:39;98117.34;;;9.91;74.11
17230;BME280;8731;50.364;8.958;2024-02-23T15:29:05;98116.78;;;9.81;74.77
17230;BME280;8731;50.364;8.958;2024-02-23T15:33:28;98126.06;;;9.68;75.30
17230;BME280;8731;50.364;8.958;2024-02-23T15:37:52;98124.19;;;9.92;74.97
17230;BME280;8731;50.364;8.958;2024-02-23T15:42:14;98129.06;;;9.89;75.86
17230;BME280;8731;50.364;8.958;2024-02-23T15:46:40;98131.06;;;9.79;76.21
17230;BME280;8731;50.364;8.958;2024-02-23T15:51:03;98137.03;;;9.67;77.85
17230;BME280;8731;50.364;8.958;2024-02-23T15:55:27;98131.88;;;9.52;76.97
17230;BME280;8731;50.364;8.958;2024-02-23T15:59:49;98131.88;;;9.52;74.80
17230;BME280;8731;50.364;8.958;2024-02-23T16:04:12;98130.72;;;9.47;74.07
17230;BME280;8731;50.364;8.958;2024-02-23T16:08:39;98145.25;;;9.36;74.13
17230;BME280;8731;50.364;8.958;2024-02-23T16:13:05;98152.88;;;9.23;73.17
17230;BME280;8731;50.364;8.958;2024-02-23T16:17:28;98152.16;;;9.12;72.91
17230;BME280;8731;50.364;8.958;2024-02-23T16:21:51;98162.22;;;9.11;74.14
17230;BME280;8731;50.364;8.958;2024-02-23T16:26:13;98148.00;;;8.88;73.91
17230;BME280;8731;50.364;8.958;2024-02-23T16:30:39;98150.34;;;8.85;74.83
17230;BME280;8731;50.364;8.958;2024-02-23T16:35:02;98155.75;;;8.65;76.05
17230;BME280;8731;50.364;8.958;2024-02-23T16:39:25;98145.72;;;8.66;76.18
17230;BME280;8731;50.364;8.958;2024-02-23T16:43:49;98150.63;;;8.51;76.76
17230;BME280;8731;50.364;8.958;2024-02-23T16:48:12;98148.81;;;8.37;77.03
17230;BME280;8731;50.364;8.958;2024-02-23T16:52:36;98154.88;;;8.39;77.01
17230;BME280;8731;50.364;8.958;2024-02-23T16:56:58;98153.53;;;8.44;77.46
17230;BME280;8731;50.364;8.958;2024-02-23T17:01:21;98150.91;;;8.31;77.72
17230;BME280;8731;50.364;8.958;2024-02-23T17:05:45;98156.00;;;7.83;79.02
17230;BME280;8731;50.364;8.958;2024-02-23T17:10:08;98158.03;;;8.12;78.69
17230;BME280;8731;50.364;8.958;2024-02-23T17:14:32;98161.59;;;7.90;79.67
17230;BME280;8731;50.364;8.958;2024-02-23T17:18:55;98167.44;;;7.78;80.47
17230;BME280;8731;50.364;8.958;2024-02-23T17:23:19;98165.59;;;7.63;81.08
17230;BME280;8731;50.364;8.958;2024-02-23T17:27:42;98153.59;;;7.61;81.29
17230;BME280;8731;50.364;8.958;2024-02-23T17:32:05;98164.84;;;7.41;83.01
17230;BME280;8731;50.364;8.958;2024-02-23T17:36:28;98154.16;;;7.33;83.34
17230;BME280;8731;50.364;8.958;2024-02-23T17:40:53;98157.88;;;7.27;83.60
17230;BME280;8731;50.364;8.958;2024-02-23T17:45:16;98166.81;;;7.33;83.51
17230;BME280;8731;50.364;8.958;2024-02-23T17:49:38;98170.66;;;7.28;83.39
17230;BME280;8731;50.364;8.958;2024-02-23T17:54:00;98174.41;;;7.22;83.93
17230;BME280;8731;50.364;8.958;2024-02-23T17:58:24;98183.59;;;7.09;85.82
17230;BME280;8731;50.364;8.958;2024-02-23T18:02:46;98179.31;;;7.08;84.61
17230;BME280;8731;50.364;8.958;2024-02-23T18:07:11;98191.28;;;6.99;84.88
17230;BME280;8731;50.364;8.958;2024-02-23T18:11:34;98186.13;;;6.98;84.78
17230;BME280;8731;50.364;8.958;2024-02-23T18:16:08;98191.28;;;6.88;84.91
17230;BME280;8731;50.364;8.958;2024-02-23T18:20:33;98195.56;;;6.89;85.07
17230;BME280;8731;50.364;8.958;2024-02-23T18:24:56;98196.09;;;6.85;84.13
17230;BME280;8731;50.364;8.958;2024-02-23T18:29:18;98192.50;;;6.93;83.99
17230;BME280;8731;50.364;8.958;2024-02-23T18:33:43;98199.16;;;6.81;83.46
17230;BME280;8731;50.364;8.958;2024-02-23T18:38:06;98199.16;;;6.81;85.05
17230;BME280;8731;50.364;8.958;2024-02-23T18:42:29;98192.34;;;6.80;85.02
17230;BME280;8731;50.364;8.958;2024-02-23T18:46:51;98196.06;;;6.73;85.96
17230;BME280;8731;50.364;8.958;2024-02-23T18:51:15;98203.44;;;6.48;88.15
17230;BME280;8731;50.364;8.958;2024-02-23T18:55:39;98203.25;;;6.57;87.61
17230;BME280;8731;50.364;8.958;2024-02-23T19:00:04;98193.25;;;6.58;87.32
17230;BME280;8731;50.364;8.958;2024-02-23T19:04:27;98194.50;;;6.63;87.07
17230;BME280;8731;50.364;8.958;2024-02-23T19:08:52;98203.09;;;6.43;87.31
17230;BME280;8731;50.364;8.958;2024-02-23T19:13:14;98201.16;;;6.51;86.92
17230;BME280;8731;50.364;8.958;2024-02-23T19:17:37;98195.97;;;6.50;87.20
17230;BME280;8731;50.364;8.958;2024-02-23T19:22:01;98211.38;;;6.53;86.85
17230;BME280;8731;50.364;8.958;2024-02-23T19:26:25;98206.97;;;6.50;86.19
17230;BME280;8731;50.364;8.958;2024-02-23T19:30:47;98204.09;;;6.45;87.04
17230;BME280;8731;50.364;8.958;2024-02-23T19:35:14;98217.63;;;6.46;86.41
17230;BME280;8731;50.364;8.958;2024-02-23T19:39:36;98213.56;;;6.48;85.94
17230;BME280;8731;50.364;8.958;2024-02-23T19:44:00;98222.13;;;6.50;85.98
17230;BME280;8731;50.364;8.958;2024-02-23T19:48:24;98207.84;;;6.51;85.25
17230;BME280;8731;50.364;8.958;2024-02-23T19:52:46;98208.84;;;6.53;85.60
17230;BME280;8731;50.364;8.958;2024-02-23T19:57:09;98209.28;;;6.47;85.15
17230;BME280;8731;50.364;8.958;2024-02-23T20:01:32;98191.25;;;6.54;84.53
17230;BME280;8731;50.364;8.958;2024-02-23T20:05:55;98202.38;;;6.56;84.70
17230;BME280;8731;50.364;8.958;2024-02-23T20:10:20;98199.91;;;6.46;85.07
17230;BME280;8731;50.364;8.958;2024-02-23T20:14:43;98201.56;;;6.45;84.88
17230;BME280;8731;50.364;8.958;2024-02-23T20:19:07;98190.84;;;6.38;84.62
17230;BME280;8731;50.364;8.958;2024-02-23T20:23:30;98195.41;;;6.42;84.37
17230;BME280;8731;50.364;8.958;2024-02-23T20:27:52;98202.75;;;6.39;84.49
17230;BME280;8731;50.364;8.958;2024-02-23T20:32:15;98187.75;;;6.30;84.79
17230;BME280;8731;50.364;8.958;2024-02-23T20:36:39;98192.81;;;6.30;84.21
17230;BME280;8731;50.364;8.958;2024-02-23T20:41:02;98182.88;;;6.22;84.41
17230;BME280;8731;50.364;8.958;2024-02-23T20:45:26;98190.00;;;6.15;84.41
17230;BME280;8731;50.364;8.958;2024-02-23T20:49:49;98192.78;;;6.08;84.24
17230;BME280;8731;50.364;8.958;2024-02-23T20:54:13;98182.88;;;6.00;84.48
17230;BME280;8731;50.364;8.958;2024-02-23T20:58:36;98197.28;;;5.91;84.76
17230;BME280;8731;50.364;8.958;2024-02-23T21:02:58;98190.22;;;5.86;85.34
17230;BME280;8731;50.364;8.958;2024-02-23T21:07:21;98184.56;;;5.79;85.31
17230;BME280;8731;50.364;8.958;2024-02-23T21:11:45;98194.72;;;5.69;85.26
17230;BME280;8731;50.364;8.958;2024-02-23T21:16:07;98197.13;;;5.57;86.13
17230;BME280;8731;50.364;8.958;2024-02-23T21:20:30;98192.09;;;5.57;86.93
17230;BME280;8731;50.364;8.958;2024-02-23T21:24:52;98187.94;;;5.58;85.71
17230;BME280;8731;50.364;8.958;2024-02-23T21:29:16;98184.91;;;5.51;85.85
17230;BME280;8731;50.364;8.958;2024-02-23T21:33:39;98188.22;;;5.50;86.21
17230;BME280;8731;50.364;8.958;2024-02-23T21:38:01;98184.28;;;5.44;86.82
17230;BME280;8731;50.364;8.958;2024-02-23T21:42:24;98194.53;;;5.45;86.80
17230;BME280;8731;50.364;8.958;2024-02-23T21:46:48;98197.31;;;5.38;86.42
17230;BME280;8731;50.364;8.958;2024-02-23T21:51:11;98200.47;;;5.36;87.36
17230;BME280;8731;50.364;8.958;2024-02-23T21:55:33;98201.75;;;5.31;87.15
17230;BME280;8731;50.364;8.958;2024-02-23T21:59:56;98193.28;;;5.20;87.88
17230;BME280;8731;50.364;8.958;2024-02-23T22:04:20;98199.84;;;5.18;87.98
17230;BME280;8731;50.364;8.958;2024-02-23T22:08:42;98205.94;;;5.10;88.91
17230;BME280;8731;50.364;8.958;2024-02-23T22:13:04;98212.97;;;5.14;87.49
17230;BME280;8731;50.364;8.958;2024-02-23T22:17:27;98210.22;;;4.80;89.85
17230;BME280;8731;50.364;8.958;2024-02-23T22:21:53;98202.44;;;4.98;89.06
17230;BME280;8731;50.364;8.958;2024-02-23T22:26:16;98209.34;;;4.90;89.36
17230;BME280;8731;50.364;8.958;2024-02-23T22:30:39;98204.41;;;4.91;89.06
17230;BME280;8731;50.364;8.958;2024-02-23T22:35:02;98203.41;;;4.89;88.70
17230;BME280;8731;50.364;8.958;2024-02-23T22:39:26;98190.06;;;4.90;88.34
17230;BME280;8731;50.364;8.958;2024-02-23T22:43:49;98197.88;;;4.83;88.68
17230;BME280;8731;50.364;8.958;2024-02-23T22:48:11;98193.47;;;4.81;88.56
17230;BME280;8731;50.364;8.958;2024-02-23T22:52:33;98207.47;;;4.77;88.07
17230;BME280;8731;50.364;8.958;2024-02-23T22:56:57;98202.66;;;4.70;88.51
17230;BME280;8731;50.364;8.958;2024-02-23T23:01:20;98208.84;;;4.74;88.10
17230;BME280;8731;50.364;8.958;2024-02-23T23:05:42;98214.88;;;4.66;89.17
17230;BME280;8731;50.364;8.958;2024-02-23T23:10:06;98223.31;;;4.66;88.75
17230;BME280;8731;50.364;8.958;2024-02-23T23:14:31;98224.44;;;4.59;89.35
17230;BME280;8731;50.364;8.958;2024-02-23T23:18:53;98238.81;;;4.50;89.08
17230;BME280;8731;50.364;8.958;2024-02-23T23:23:16;98230.47;;;4.41;90.26
17230;BME280;8731;50.364;8.958;2024-02-23T23:27:38;98236.75;;;4.36;89.83
17230;BME280;8731;50.364;8.958;2024-02-23T23:32:02;98223.03;;;4.32;90.53
17230;BME280;8731;50.364;8.958;2024-02-23T23:36:25;98226.28;;;4.31;90.19
17230;BME280;8731;50.364;8.958;2024-02-23T23:40:48;98234.28;;;4.07;91.95
17230;BME280;8731;50.364;8.958;2024-02-23T23:45:10;98237.06;;;4.20;90.11
17230;BME280;8731;50.364;8.958;2024-02-23T23:49:35;98245.88;;;4.15;90.28